sensor_id;sensor_type;location;lat;lon;timestamp;pressure;altitude;pressure_sealevel;temperature;humidity
54407;BME280;40313;50.308;30.374;2024-03-02T00:01:18;100141.28;;;7.30;98.70
54407;BME280;40313;50.308;30.374;2024-03-02T00:03:45;100140.56;;;7.26;98.45
54407;BME280;40313;50.308;30.374;2024-03-02T00:06:13;100133.03;;;7.19;98.68
54407;BME280;40313;50.308;30.374;2024-03-02T00:08:39;100113.47;;;7.08;99.12
54407;BME280;40313;50.308;30.374;2024-03-02T00:11:06;100145.63;;;7.30;99.37
54407;BME280;40313;50.308;30.374;2024-03-02T00:13:33;100114.19;;;7.14;98.37
54407;BME280;40313;50.308;30.374;2024-03-02T00:16:01;100161.69;;;7.41;99.11
54407;BME280;40313;50.308;30.374;2024-03-02T00:18:31;100119.66;;;7.04;98.81
54407;BME280;40313;50.308;30.374;2024-03-02T00:20:59;100113.59;;;7.05;99.52
54407;BME280;40313;50.308;30.374;2024-03-02T00:23:30;100112.91;;;7.00;99.67
54407;BME280;40313;50.308;30.374;2024-03-02T00:25:58;100133.94;;;7.18;99.63
54407;BME280;40313;50.308;30.374;2024-03-02T00:28:26;100100.84;;;6.99;98.85
54407;BME280;40313;50.308;30.374;2024-03-02T00:31:02;100136.38;;;7.22;100.00
54407;BME280;40313;50.308;30.374;2024-03-02T00:33:34;100129.75;;;7.14;100.00
54407;BME280;40313;50.308;30.374;2024-03-02T00:36:01;100139.78;;;7.24;100.00
54407;BME280;40313;50.308;30.374;2024-03-02T00:38:30;100099.13;;;6.98;100.00
54407;BME280;40313;50.308;30.374;2024-03-02T00:40:58;100130.34;;;7.22;100.00
54407;BME280;40313;50.308;30.374;2024-03-02T00:43:45;100138.25;;;7.17;100.00
54407;BME280;40313;50.308;30.374;2024-03-02T00:46:16;100134.78;;;7.18;100.00
54407;BME280;40313;50.308;30.374;2024-03-02T00:48:51;100110.34;;;6.99;100.00
54407;BME280;40313;50.308;30.374;2024-03-02T00:51:18;100114.19;;;7.14;100.00
54407;BME280;40313;50.308;30.374;2024-03-02T00:53:46;100112.28;;;7.19;100.00
54407;BME280;40313;50.308;30.374;2024-03-02T00:56:13;100086.75;;;7.06;100.00
54407;BME280;40313;50.308;30.374;2024-03-02T00:58:39;100097.25;;;7.03;100.00
54407;BME280;40313;50.308;30.374;2024-03-02T01:01:06;100105.69;;;7.08;100.00
54407;BME280;40313;50.308;30.374;2024-03-02T01:03:33;100086.16;;;6.98;100.00
54407;BME280;40313;50.308;30.374;2024-03-02T01:06:00;100088.88;;;6.95;100.00
54407;BME280;40313;50.308;30.374;2024-03-02T01:08:27;100121.19;;;7.12;100.00
54407;BME280;40313;50.308;30.374;2024-03-02T01:10:55;100081.16;;;6.94;100.00
54407;BME280;40313;50.308;30.374;2024-03-02T01:13:22;100114.13;;;7.15;100.00
54407;BME280;40313;50.308;30.374;2024-03-02T01:15:49;100062.56;;;6.81;100.00
54407;BME280;40313;50.308;30.374;2024-03-02T01:18:16;100092.53;;;6.89;100.00
54407;BME280;40313;50.308;30.374;2024-03-02T01:20:43;100092.56;;;6.88;100.00
54407;BME280;40313;50.308;30.374;2024-03-02T01:23:09;100070.56;;;6.74;100.00
54407;BME280;40313;50.308;30.374;2024-03-02T01:25:36;100090.09;;;6.85;100.00
54407;BME280;40313;50.308;30.374;2024-03-02T01:28:04;100119.06;;;6.98;100.00
54407;BME280;40313;50.308;30.374;2024-03-02T01:30:31;100069.06;;;6.67;100.00
54407;BME280;40313;50.308;30.374;2024-03-02T01:32:58;100093.91;;;6.74;100.00
54407;BME280;40313;50.308;30.374;2024-03-02T01:35:25;100091.09;;;6.81;100.00
54407;BME280;40313;50.308;30.374;2024-03-02T01:37:52;100121.00;;;6.91;100.00
54407;BME280;40313;50.308;30.374;2024-03-02T01:40:19;100104.72;;;6.86;100.00
54407;BME280;40313;50.308;30.374;2024-03-02T01:42:46;100048.13;;;6.47;100.00
54407;BME280;40313;50.308;30.374;2024-03-02T01:45:14;100060.03;;;6.52;100.00
54407;BME280;40313;50.308;30.374;2024-03-02T01:47:41;100070.44;;;6.78;100.00
54407;BME280;40313;50.308;30.374;2024-03-02T01:50:08;100100.47;;;6.85;100.00
54407;BME280;40313;50.308;30.374;2024-03-02T01:52:37;100101.66;;;6.74;100.00
54407;BME280;40313;50.308;30.374;2024-03-02T01:55:05;100085.69;;;6.62;100.00
54407;BME280;40313;50.308;30.374;2024-03-02T01:57:32;100089.00;;;6.65;100.00
54407;BME280;40313;50.308;30.374;2024-03-02T02:00:00;100078.13;;;6.54;100.00
54407;BME280;40313;50.308;30.374;2024-03-02T02:02:28;100087.94;;;6.44;100.00
54407;BME280;40313;50.308;30.374;2024-03-02T02:04:55;100078.63;;;6.38;100.00
54407;BME280;40313;50.308;30.374;2024-03-02T02:07:21;100095.59;;;6.49;100.00
54407;BME280;40313;50.308;30.374;2024-03-02T02:09:48;100084.34;;;6.48;100.00
54407;BME280;40313;50.308;30.374;2024-03-02T02:12:14;100097.69;;;6.37;100.00
54407;BME280;40313;50.308;30.374;2024-03-02T02:14:48;100081.63;;;6.26;100.00
54407;BME280;40313;50.308;30.374;2024-03-02T02:17:16;100099.97;;;6.47;100.00
54407;BME280;40313;50.308;30.374;2024-03-02T02:19:44;100070.16;;;6.33;100.00
54407;BME280;40313;50.308;30.374;2024-03-02T02:22:12;100055.72;;;6.26;100.00
54407;BME280;40313;50.308;30.374;2024-03-02T02:24:39;100104.81;;;6.57;100.00
54407;BME280;40313;50.308;30.374;2024-03-02T02:27:06;100091.41;;;6.45;100.00
54407;BME280;40313;50.308;30.374;2024-03-02T02:29:33;100049.88;;;6.19;100.00
54407;BME280;40313;50.308;30.374;2024-03-02T02:32:00;100088.94;;;6.40;100.00
54407;BME280;40313;50.308;30.374;2024-03-02T02:34:26;100054.31;;;6.14;100.00
54407;BME280;40313;50.308;30.374;2024-03-02T02:36:53;100086.28;;;6.42;100.00
54407;BME280;40313;50.308;30.374;2024-03-02T02:39:22;100090.59;;;6.43;100.00
54407;BME280;40313;50.308;30.374;2024-03-02T02:41:48;100084.09;;;6.29;100.00
54407;BME280;40313;50.308;30.374;2024-03-02T02:44:15;100067.22;;;6.16;100.00
54407;BME280;40313;50.308;30.374;2024-03-02T02:46:41;100083.28;;;6.27;100.00
54407;BME280;40313;50.308;30.374;2024-03-02T02:49:08;100097.16;;;6.26;100.00
54407;BME280;40313;50.308;30.374;2024-03-02T02:51:35;100070.16;;;6.05;100.00
54407;BME280;40313;50.308;30.374;2024-03-02T02:54:01;100062.34;;;6.07;100.00
54407;BME280;40313;50.308;30.374;2024-03-02T02:56:29;100085.34;;;6.17;100.00
54407;BME280;40313;50.308;30.374;2024-03-02T02:58:56;100049.16;;;5.86;100.00
54407;BME280;40313;50.308;30.374;2024-03-02T03:01:22;100097.63;;;6.11;100.00
54407;BME280;40313;50.308;30.374;2024-03-02T03:03:49;100095.25;;;6.04;100.00
54407;BME280;40313;50.308;30.374;2024-03-02T03:06:15;100097.16;;;5.98;100.00
54407;BME280;40313;50.308;30.374;2024-03-02T03:08:42;100094.28;;;6.07;100.00
54407;BME280;40313;50.308;30.374;2024-03-02T03:11:09;100089.03;;;6.10;100.00
54407;BME280;40313;50.308;30.374;2024-03-02T03:13:36;100088.78;;;5.88;100.00
54407;BME280;40313;50.308;30.374;2024-03-02T03:16:03;100092.25;;;5.87;100.00
54407;BME280;40313;50.308;30.374;2024-03-02T03:18:30;100093.91;;;5.89;100.00
54407;BME280;40313;50.308;30.374;2024-03-02T03:20:57;100090.06;;;6.04;100.00
54407;BME280;40313;50.308;30.374;2024-03-02T03:23:23;100069.94;;;5.83;100.00
54407;BME280;40313;50.308;30.374;2024-03-02T03:25:51;100083.28;;;6.00;100.00
54407;BME280;40313;50.308;30.374;2024-03-02T03:28:17;100080.22;;;5.84;100.00
54407;BME280;40313;50.308;30.374;2024-03-02T03:30:45;100090.38;;;5.92;100.00
54407;BME280;40313;50.308;30.374;2024-03-02T03:33:12;100083.69;;;5.85;100.00
54407;BME280;40313;50.308;30.374;2024-03-02T03:35:38;100081.25;;;5.80;100.00
54407;BME280;40313;50.308;30.374;2024-03-02T03:38:05;100076.13;;;5.77;100.00
54407;BME280;40313;50.308;30.374;2024-03-02T03:40:31;100083.88;;;5.79;100.00
54407;BME280;40313;50.308;30.374;2024-03-02T03:42:58;100082.56;;;5.94;100.00
54407;BME280;40313;50.308;30.374;2024-03-02T03:45:25;100079.13;;;5.93;100.00
54407;BME280;40313;50.308;30.374;2024-03-02T03:47:53;100078.31;;;5.91;100.00
54407;BME280;40313;50.308;30.374;2024-03-02T03:50:20;100074.31;;;5.81;100.00
54407;BME280;40313;50.308;30.374;2024-03-02T03:52:46;100075.38;;;5.74;100.00
54407;BME280;40313;50.308;30.374;2024-03-02T03:55:13;100081.38;;;5.44;100.00
54407;BME280;40313;50.308;30.374;2024-03-02T03:57:39;100081.28;;;5.79;100.00
54407;BME280;40313;50.308;30.374;2024-03-02T04:00:07;100077.25;;;5.68;100.00
54407;BME280;40313;50.308;30.374;2024-03-02T04:02:35;100078.22;;;5.64;100.00
54407;BME280;40313;50.308;30.374;2024-03-02T04:05:03;100084.91;;;5.73;100.00
54407;BME280;40313;50.308;30.374;2024-03-02T04:07:34;100086.44;;;5.80;100.00
54407;BME280;40313;50.308;30.374;2024-03-02T04:10:06;100078.69;;;5.79;100.00
54407;BME280;40313;50.308;30.374;2024-03-02T04:12:35;100083.25;;;5.70;100.00
54407;BME280;40313;50.308;30.374;2024-03-02T04:15:04;100085.84;;;5.70;100.00
54407;BME280;40313;50.308;30.374;2024-03-02T04:17:31;100082.16;;;5.48;100.00
54407;BME280;40313;50.308;30.374;2024-03-02T04:19:58;100082.63;;;5.62;100.00
54407;BME280;40313;50.308;30.374;2024-03-02T04:22:27;100086.63;;;5.72;100.00
54407;BME280;40313;50.308;30.374;2024-03-02T04:24:53;100085.84;;;5.70;100.00
54407;BME280;40313;50.308;30.374;2024-03-02T04:27:20;100078.69;;;5.79;100.00
54407;BME280;40313;50.308;30.374;2024-03-02T04:29:46;100080.03;;;5.62;100.00
54407;BME280;40313;50.308;30.374;2024-03-02T04:32:13;100076.13;;;5.79;100.00
54407;BME280;40313;50.308;30.374;2024-03-02T04:34:40;100074.84;;;5.62;100.00
54407;BME280;40313;50.308;30.374;2024-03-02T04:37:06;100091.53;;;5.52;100.00
54407;BME280;40313;50.308;30.374;2024-03-02T04:39:35;100081.31;;;5.47;100.00
54407;BME280;40313;50.308;30.374;2024-03-02T04:42:02;100083.13;;;5.44;100.00
54407;BME280;40313;50.308;30.374;2024-03-02T04:44:29;100086.69;;;5.71;100.00
54407;BME280;40313;50.308;30.374;2024-03-02T04:46:55;100091.84;;;5.71;100.00
54407;BME280;40313;50.308;30.374;2024-03-02T04:49:22;100090.72;;;5.80;100.00
54407;BME280;40313;50.308;30.374;2024-03-02T04:51:48;100087.38;;;5.15;100.00
54407;BME280;40313;50.308;30.374;2024-03-02T04:54:15;100077.44;;;5.62;100.00
54407;BME280;40313;50.308;30.374;2024-03-02T04:56:42;100078.22;;;5.66;100.00
54407;BME280;40313;50.308;30.374;2024-03-02T04:59:15;100089.16;;;5.74;100.00
54407;BME280;40313;50.308;30.374;2024-03-02T05:01:41;100082.44;;;5.68;100.00
54407;BME280;40313;50.308;30.374;2024-03-02T05:04:08;100087.50;;;5.73;100.00
54407;BME280;40313;50.308;30.374;2024-03-02T05:06:36;100083.78;;;5.82;100.00
54407;BME280;40313;50.308;30.374;2024-03-02T05:09:03;100080.56;;;5.74;100.00
54407;BME280;40313;50.308;30.374;2024-03-02T05:11:29;100075.72;;;6.21;100.00
54407;BME280;40313;50.308;30.374;2024-03-02T05:14:19;100079.19;;;6.20;100.00
54407;BME280;40313;50.308;30.374;2024-03-02T05:16:46;100080.69;;;6.27;100.00
54407;BME280;40313;50.308;30.374;2024-03-02T05:19:12;100078.25;;;6.22;100.00
54407;BME280;40313;50.308;30.374;2024-03-02T05:21:39;100079.34;;;6.15;100.00
54407;BME280;40313;50.308;30.374;2024-03-02T05:24:06;100083.81;;;6.65;100.00
54407;BME280;40313;50.308;30.374;2024-03-02T05:26:32;100083.81;;;6.65;100.00
54407;BME280;40313;50.308;30.374;2024-03-02T05:28:59;100094.91;;;6.96;100.00
54407;BME280;40313;50.308;30.374;2024-03-02T05:31:26;100094.06;;;6.95;100.00
54407;BME280;40313;50.308;30.374;2024-03-02T05:33:53;100083.47;;;7.26;100.00
54407;BME280;40313;50.308;30.374;2024-03-02T05:36:19;100088.94;;;7.42;100.00
54407;BME280;40313;50.308;30.374;2024-03-02T05:38:47;100073.78;;;8.88;100.00
54407;BME280;40313;50.308;30.374;2024-03-02T05:41:13;100074.22;;;9.19;100.00
54407;BME280;40313;50.308;30.374;2024-03-02T05:43:39;100079.22;;;8.39;100.00
54407;BME280;40313;50.308;30.374;2024-03-02T05:46:06;100075.84;;;9.99;99.56
54407;BME280;40313;50.308;30.374;2024-03-02T05:48:34;100076.59;;;10.57;91.34
54407;BME280;40313;50.308;30.374;2024-03-02T05:51:00;100079.91;;;12.72;84.67
54407;BME280;40313;50.308;30.374;2024-03-02T05:53:27;100086.47;;;11.53;81.73
54407;BME280;40313;50.308;30.374;2024-03-02T05:55:53;100081.41;;;10.64;82.99
54407;BME280;40313;50.308;30.374;2024-03-02T05:58:21;100091.53;;;9.59;89.50
54407;BME280;40313;50.308;30.374;2024-03-02T06:00:57;100088.28;;;10.11;87.27
54407;BME280;40313;50.308;30.374;2024-03-02T06:03:24;100080.50;;;9.73;88.96
54407;BME280;40313;50.308;30.374;2024-03-02T06:05:52;100088.72;;;11.44;86.88
54407;BME280;40313;50.308;30.374;2024-03-02T06:08:18;100078.03;;;11.64;79.27
54407;BME280;40313;50.308;30.374;2024-03-02T06:10:45;100084.03;;;11.50;83.02
54407;BME280;40313;50.308;30.374;2024-03-02T06:13:12;100084.47;;;10.90;81.93
54407;BME280;40313;50.308;30.374;2024-03-02T06:15:38;100085.44;;;10.89;80.87
54407;BME280;40313;50.308;30.374;2024-03-02T06:18:05;100084.25;;;11.62;79.76
54407;BME280;40313;50.308;30.374;2024-03-02T06:20:33;100085.88;;;10.45;81.48
54407;BME280;40313;50.308;30.374;2024-03-02T06:23:00;100087.94;;;9.02;87.37
54407;BME280;40313;50.308;30.374;2024-03-02T06:25:27;100085.63;;;9.16;90.86
54407;BME280;40313;50.308;30.374;2024-03-02T06:27:54;100091.94;;;8.69;90.48
54407;BME280;40313;50.308;30.374;2024-03-02T06:30:20;100096.56;;;9.04;93.02
54407;BME280;40313;50.308;30.374;2024-03-02T06:32:47;100095.91;;;8.34;94.06
54407;BME280;40313;50.308;30.374;2024-03-02T06:35:13;100089.22;;;8.28;96.87
54407;BME280;40313;50.308;30.374;2024-03-02T06:37:40;100078.66;;;9.16;95.98
54407;BME280;40313;50.308;30.374;2024-03-02T06:40:08;100068.38;;;9.13;94.45
54407;BME280;40313;50.308;30.374;2024-03-02T06:42:35;100071.25;;;8.87;95.24
54407;BME280;40313;50.308;30.374;2024-03-02T06:45:02;100076.63;;;8.61;94.76
54407;BME280;40313;50.308;30.374;2024-03-02T06:47:29;100075.53;;;8.67;95.41
54407;BME280;40313;50.308;30.374;2024-03-02T06:49:55;100073.97;;;8.84;94.54
54407;BME280;40313;50.308;30.374;2024-03-02T06:52:23;100065.56;;;9.18;93.89
54407;BME280;40313;50.308;30.374;2024-03-02T06:54:50;100067.06;;;9.24;94.89
54407;BME280;40313;50.308;30.374;2024-03-02T06:57:17;100080.88;;;9.05;95.12
54407;BME280;40313;50.308;30.374;2024-03-02T06:59:45;100071.38;;;9.44;93.33
54407;BME280;40313;50.308;30.374;2024-03-02T07:02:12;100063.34;;;9.48;94.42
54407;BME280;40313;50.308;30.374;2024-03-02T07:04:38;100064.28;;;9.08;95.03
54407;BME280;40313;50.308;30.374;2024-03-02T07:07:05;100069.31;;;9.31;94.96
54407;BME280;40313;50.308;30.374;2024-03-02T07:09:31;100069.63;;;9.44;92.89
54407;BME280;40313;50.308;30.374;2024-03-02T07:11:58;100066.63;;;9.14;92.95
54407;BME280;40313;50.308;30.374;2024-03-02T07:14:26;100062.31;;;9.52;92.01
54407;BME280;40313;50.308;30.374;2024-03-02T07:17:12;100060.19;;;9.80;91.74
54407;BME280;40313;50.308;30.374;2024-03-02T07:19:39;100056.72;;;9.98;89.59
54407;BME280;40313;50.308;30.374;2024-03-02T07:22:06;100062.34;;;10.08;89.29
54407;BME280;40313;50.308;30.374;2024-03-02T07:24:39;100056.47;;;9.85;89.65
54407;BME280;40313;50.308;30.374;2024-03-02T07:27:06;100058.44;;;9.99;89.54
54407;BME280;40313;50.308;30.374;2024-03-02T07:29:34;100053.72;;;10.25;87.72
54407;BME280;40313;50.308;30.374;2024-03-02T07:32:00;100049.44;;;10.61;86.26
54407;BME280;40313;50.308;30.374;2024-03-02T07:34:27;100052.63;;;10.66;85.59
54407;BME280;40313;50.308;30.374;2024-03-02T07:36:53;100044.69;;;10.69;86.14
54407;BME280;40313;50.308;30.374;2024-03-02T07:39:20;100050.88;;;10.84;84.81
54407;BME280;40313;50.308;30.374;2024-03-02T07:41:47;100046.25;;;10.71;84.96
54407;BME280;40313;50.308;30.374;2024-03-02T07:44:13;100039.56;;;11.01;83.84
54407;BME280;40313;50.308;30.374;2024-03-02T07:46:41;100045.66;;;10.12;84.14
54407;BME280;40313;50.308;30.374;2024-03-02T07:49:08;100046.66;;;10.81;84.29
54407;BME280;40313;50.308;30.374;2024-03-02T07:51:35;100038.38;;;11.40;81.29
54407;BME280;40313;50.308;30.374;2024-03-02T07:54:02;100040.84;;;11.43;80.84
54407;BME280;40313;50.308;30.374;2024-03-02T07:56:29;100052.50;;;11.20;80.31
54407;BME280;40313;50.308;30.374;2024-03-02T07:58:56;100052.13;;;10.59;81.26
54407;BME280;40313;50.308;30.374;2024-03-02T08:01:26;100042.13;;;11.18;80.65
54407;BME280;40313;50.308;30.374;2024-03-02T08:03:54;100042.81;;;11.71;78.37
54407;BME280;40313;50.308;30.374;2024-03-02T08:06:22;100039.97;;;11.76;78.08
54407;BME280;40313;50.308;30.374;2024-03-02T08:08:49;100043.34;;;11.29;78.50
54407;BME280;40313;50.308;30.374;2024-03-02T08:11:15;100040.09;;;11.73;77.37
54407;BME280;40313;50.308;30.374;2024-03-02T08:13:42;100034.72;;;11.92;74.77
54407;BME280;40313;50.308;30.374;2024-03-02T08:16:08;100041.59;;;11.95;74.09
54407;BME280;40313;50.308;30.374;2024-03-02T08:18:35;100035.22;;;11.51;73.70
54407;BME280;40313;50.308;30.374;2024-03-02T08:21:03;100032.59;;;12.61;72.71
54407;BME280;40313;50.308;30.374;2024-03-02T08:23:30;100039.63;;;12.75;70.52
54407;BME280;40313;50.308;30.374;2024-03-02T08:25:57;100046.94;;;12.99;68.83
54407;BME280;40313;50.308;30.374;2024-03-02T08:28:23;100042.81;;;12.19;69.28
54407;BME280;40313;50.308;30.374;2024-03-02T08:30:50;100037.28;;;12.40;70.68
54407;BME280;40313;50.308;30.374;2024-03-02T08:33:17;100044.72;;;12.48;69.01
54407;BME280;40313;50.308;30.374;2024-03-02T08:35:43;100043.91;;;13.35;67.34
54407;BME280;40313;50.308;30.374;2024-03-02T08:38:12;100030.78;;;13.21;67.08
54407;BME280;40313;50.308;30.374;2024-03-02T08:40:39;100042.47;;;12.56;66.92
54407;BME280;40313;50.308;30.374;2024-03-02T08:43:06;100041.19;;;12.33;66.45
54407;BME280;40313;50.308;30.374;2024-03-02T08:45:33;100040.16;;;12.66;67.52
54407;BME280;40313;50.308;30.374;2024-03-02T08:48:01;100028.44;;;13.02;65.66
54407;BME280;40313;50.308;30.374;2024-03-02T08:50:27;100036.03;;;13.21;65.06
54407;BME280;40313;50.308;30.374;2024-03-02T08:52:54;100037.00;;;12.44;66.17
54407;BME280;40313;50.308;30.374;2024-03-02T08:55:22;100033.00;;;12.23;65.76
54407;BME280;40313;50.308;30.374;2024-03-02T08:57:48;100025.84;;;12.57;65.90
54407;BME280;40313;50.308;30.374;2024-03-02T09:00:16;100037.75;;;12.77;64.43
54407;BME280;40313;50.308;30.374;2024-03-02T09:02:44;100027.50;;;13.17;64.00
54407;BME280;40313;50.308;30.374;2024-03-02T09:05:11;100019.50;;;13.49;63.05
54407;BME280;40313;50.308;30.374;2024-03-02T09:07:38;100025.47;;;13.37;64.29
54407;BME280;40313;50.308;30.374;2024-03-02T09:10:05;100024.91;;;13.46;63.08
54407;BME280;40313;50.308;30.374;2024-03-02T09:12:34;100026.09;;;13.69;61.98
54407;BME280;40313;50.308;30.374;2024-03-02T09:15:01;100026.41;;;13.50;61.49
54407;BME280;40313;50.308;30.374;2024-03-02T09:17:28;100022.66;;;13.25;61.25
54407;BME280;40313;50.308;30.374;2024-03-02T09:19:55;100022.63;;;12.82;62.84
54407;BME280;40313;50.308;30.374;2024-03-02T09:22:21;100028.28;;;12.60;61.65
54407;BME280;40313;50.308;30.374;2024-03-02T09:24:52;100015.31;;;12.73;62.46
54407;BME280;40313;50.308;30.374;2024-03-02T09:27:24;100022.59;;;12.53;62.22
54407;BME280;40313;50.308;30.374;2024-03-02T09:29:58;100034.59;;;12.72;61.50
54407;BME280;40313;50.308;30.374;2024-03-02T09:32:29;100019.31;;;12.64;62.78
54407;BME280;40313;50.308;30.374;2024-03-02T09:34:56;100008.34;;;12.88;62.55
54407;BME280;40313;50.308;30.374;2024-03-02T09:37:23;100018.63;;;13.34;61.22
54407;BME280;40313;50.308;30.374;2024-03-02T09:39:50;100014.38;;;12.29;61.84
54407;BME280;40313;50.308;30.374;2024-03-02T09:42:17;100015.31;;;12.87;62.26
54407;BME280;40313;50.308;30.374;2024-03-02T09:44:44;100003.88;;;12.59;62.40
54407;BME280;40313;50.308;30.374;2024-03-02T09:47:12;100015.13;;;12.31;62.87
54407;BME280;40313;50.308;30.374;2024-03-02T09:49:39;100006.88;;;12.53;62.49
54407;BME280;40313;50.308;30.374;2024-03-02T09:52:07;100002.13;;;12.74;62.94
54407;BME280;40313;50.308;30.374;2024-03-02T09:54:33;99996.00;;;13.47;62.29
54407;BME280;40313;50.308;30.374;2024-03-02T09:57:00;99998.25;;;13.10;61.83
54407;BME280;40313;50.308;30.374;2024-03-02T09:59:27;99999.59;;;12.58;61.54
54407;BME280;40313;50.308;30.374;2024-03-02T10:01:58;100002.28;;;13.16;61.75
54407;BME280;40313;50.308;30.374;2024-03-02T10:04:28;99992.06;;;13.82;60.35
54407;BME280;40313;50.308;30.374;2024-03-02T10:07:14;99993.09;;;13.23;60.43
54407;BME280;40313;50.308;30.374;2024-03-02T10:09:41;100000.97;;;13.09;60.37
54407;BME280;40313;50.308;30.374;2024-03-02T10:12:09;99997.19;;;13.27;60.26
54407;BME280;40313;50.308;30.374;2024-03-02T10:14:36;100002.47;;;13.42;60.46
54407;BME280;40313;50.308;30.374;2024-03-02T10:17:04;100002.03;;;13.62;59.25
54407;BME280;40313;50.308;30.374;2024-03-02T10:19:33;99985.88;;;13.83;58.68
54407;BME280;40313;50.308;30.374;2024-03-02T10:22:00;99995.28;;;13.73;59.07
54407;BME280;40313;50.308;30.374;2024-03-02T10:24:34;99983.94;;;13.72;59.35
54407;BME280;40313;50.308;30.374;2024-03-02T10:27:02;99985.44;;;13.35;59.05
54407;BME280;40313;50.308;30.374;2024-03-02T10:29:29;99985.03;;;13.26;58.98
54407;BME280;40313;50.308;30.374;2024-03-02T10:31:56;99984.28;;;13.53;57.72
54407;BME280;40313;50.308;30.374;2024-03-02T10:34:24;99984.38;;;13.37;58.76
54407;BME280;40313;50.308;30.374;2024-03-02T10:36:52;99984.00;;;13.14;59.34
54407;BME280;40313;50.308;30.374;2024-03-02T10:39:19;99978.03;;;14.23;59.06
54407;BME280;40313;50.308;30.374;2024-03-02T10:41:49;99973.91;;;14.06;57.51
54407;BME280;40313;50.308;30.374;2024-03-02T10:44:16;99969.03;;;14.53;57.33
54407;BME280;40313;50.308;30.374;2024-03-02T10:46:43;99970.34;;;14.20;57.00
54407;BME280;40313;50.308;30.374;2024-03-02T10:49:11;99964.44;;;14.44;55.72
54407;BME280;40313;50.308;30.374;2024-03-02T10:51:38;99974.34;;;14.79;57.11
54407;BME280;40313;50.308;30.374;2024-03-02T10:54:06;99968.81;;;14.17;56.12
54407;BME280;40313;50.308;30.374;2024-03-02T10:56:34;99961.03;;;14.69;55.05
54407;BME280;40313;50.308;30.374;2024-03-02T10:59:13;99966.25;;;14.16;56.81
54407;BME280;40313;50.308;30.374;2024-03-02T11:01:43;99960.06;;;14.17;56.44
54407;BME280;40313;50.308;30.374;2024-03-02T11:04:11;99964.66;;;15.18;55.45
54407;BME280;40313;50.308;30.374;2024-03-02T11:06:41;99960.25;;;14.80;55.59
54407;BME280;40313;50.308;30.374;2024-03-02T11:09:12;99965.88;;;15.25;55.17
54407;BME280;40313;50.308;30.374;2024-03-02T11:11:42;99956.34;;;15.11;54.92
54407;BME280;40313;50.308;30.374;2024-03-02T11:14:13;99953.59;;;15.26;54.50
54407;BME280;40313;50.308;30.374;2024-03-02T11:16:40;99952.03;;;14.97;54.69
54407;BME280;40313;50.308;30.374;2024-03-02T11:19:09;99955.09;;;15.04;55.63
54407;BME280;40313;50.308;30.374;2024-03-02T11:21:37;99958.13;;;14.59;55.24
54407;BME280;40313;50.308;30.374;2024-03-02T11:24:31;99959.81;;;14.86;55.11
54407;BME280;40313;50.308;30.374;2024-03-02T11:27:02;99954.41;;;14.76;54.81
54407;BME280;40313;50.308;30.374;2024-03-02T11:29:45;99955.56;;;14.19;54.59
54407;BME280;40313;50.308;30.374;2024-03-02T11:32:17;99955.44;;;14.86;54.78
54407;BME280;40313;50.308;30.374;2024-03-02T11:34:45;99958.38;;;14.69;55.68
54407;BME280;40313;50.308;30.374;2024-03-02T11:37:13;99951.38;;;15.32;54.88
54407;BME280;40313;50.308;30.374;2024-03-02T11:39:42;99949.97;;;14.77;55.17
54407;BME280;40313;50.308;30.374;2024-03-02T11:42:10;99954.38;;;15.02;54.67
54407;BME280;40313;50.308;30.374;2024-03-02T11:44:40;99944.06;;;14.86;55.28
54407;BME280;40313;50.308;30.374;2024-03-02T11:47:08;99946.34;;;15.29;56.23
54407;BME280;40313;50.308;30.374;2024-03-02T11:49:39;99945.13;;;14.96;56.07
54407;BME280;40313;50.308;30.374;2024-03-02T11:52:07;99945.16;;;14.71;57.38
54407;BME280;40313;50.308;30.374;2024-03-02T11:54:34;99940.38;;;15.01;57.10
54407;BME280;40313;50.308;30.374;2024-03-02T11:57:04;99947.53;;;14.48;57.44
54407;BME280;40313;50.308;30.374;2024-03-02T11:59:30;99946.06;;;14.57;57.80
54407;BME280;40313;50.308;30.374;2024-03-02T12:01:58;99942.09;;;14.77;57.96
54407;BME280;40313;50.308;30.374;2024-03-02T12:04:26;99945.50;;;14.51;57.03
54407;BME280;40313;50.308;30.374;2024-03-02T12:06:56;99941.00;;;15.18;56.24
54407;BME280;40313;50.308;30.374;2024-03-02T12:09:25;99930.44;;;15.31;56.86
54407;BME280;40313;50.308;30.374;2024-03-02T12:12:01;99931.47;;;14.78;56.87
54407;BME280;40313;50.308;30.374;2024-03-02T12:14:30;99934.19;;;14.90;56.93
54407;BME280;40313;50.308;30.374;2024-03-02T12:16:57;99930.91;;;15.25;56.59
54407;BME280;40313;50.308;30.374;2024-03-02T12:19:24;99938.59;;;14.38;57.55
54407;BME280;40313;50.308;30.374;2024-03-02T12:21:50;99930.22;;;14.71;56.87
54407;BME280;40313;50.308;30.374;2024-03-02T12:24:17;99932.19;;;15.06;56.61
54407;BME280;40313;50.308;30.374;2024-03-02T12:26:44;99922.97;;;15.00;57.09
54407;BME280;40313;50.308;30.374;2024-03-02T12:29:12;99912.09;;;15.18;56.95
54407;BME280;40313;50.308;30.374;2024-03-02T12:31:40;99917.56;;;15.15;56.83
54407;BME280;40313;50.308;30.374;2024-03-02T12:34:07;99917.75;;;15.49;56.89
54407;BME280;40313;50.308;30.374;2024-03-02T12:36:37;99917.34;;;15.18;56.69
54407;BME280;40313;50.308;30.374;2024-03-02T12:39:04;99922.00;;;15.63;56.95
54407;BME280;40313;50.308;30.374;2024-03-02T12:41:30;99915.09;;;15.86;55.74
54407;BME280;40313;50.308;30.374;2024-03-02T12:43:58;99913.91;;;15.90;55.49
54407;BME280;40313;50.308;30.374;2024-03-02T12:46:25;99911.31;;;16.01;55.51